createdAt,value
2022-08-05T00:01:36.063Z,3.40
2022-08-05T00:04:15.347Z,3.25
2022-08-05T00:06:43.303Z,3.40
2022-08-05T00:09:13.166Z,3.20
2022-08-05T00:11:48.276Z,3.63
2022-08-05T00:14:17.234Z,3.00
2022-08-05T00:16:53.247Z,3.22
2022-08-05T00:19:24.745Z,2.65
2022-08-05T00:22:00.257Z,2.90
2022-08-05T00:24:30.627Z,3.10
2022-08-05T00:26:59.333Z,3.10
2022-08-05T00:29:27.620Z,2.70
2022-08-05T00:32:13.318Z,2.88
2022-08-05T00:35:04.788Z,2.80
2022-08-05T00:37:51.207Z,3.05
2022-08-05T00:40:27.750Z,3.15
2022-08-05T00:43:00.925Z,2.65
2022-08-05T00:45:38.587Z,3.03
2022-08-05T00:48:15.054Z,2.90
2022-08-05T00:50:44.118Z,2.88
2022-08-05T00:53:45.383Z,3.00
2022-08-05T00:56:00.422Z,2.70
2022-08-05T00:58:27.722Z,2.83
2022-08-05T01:00:55.066Z,3.00
2022-08-05T01:03:23.314Z,2.80
2022-08-05T01:05:54.616Z,2.75
2022-08-05T01:08:39.976Z,2.70
2022-08-05T01:11:21.873Z,3.03
2022-08-05T01:14:28.486Z,2.92
2022-08-05T01:17:10.843Z,2.90
2022-08-05T01:20:01.182Z,3.00
2022-08-05T01:22:43.174Z,2.80
2022-08-05T01:25:42.074Z,3.10
2022-08-05T01:28:25.958Z,2.90
2022-08-05T01:31:14.511Z,2.90
2022-08-05T01:33:51.901Z,2.90
2022-08-05T01:36:28.196Z,2.90
2022-08-05T01:38:56.593Z,2.90
2022-08-05T01:41:30.417Z,2.72
2022-08-05T01:44:01.332Z,2.90
2022-08-05T01:46:43.161Z,3.00
2022-08-05T01:49:23.996Z,2.80
2022-08-05T01:51:58.408Z,2.90
2022-08-05T01:54:46.317Z,3.22
2022-08-05T01:58:29.137Z,3.20
2022-08-05T02:00:08.174Z,3.05
2022-08-05T02:02:46.429Z,3.00
2022-08-05T02:05:23.415Z,2.88
2022-08-05T02:08:00.412Z,3.20
2022-08-05T02:10:41.915Z,3.10
2022-08-05T02:13:16.378Z,3.00
2022-08-05T02:16:01.483Z,2.95
2022-08-05T02:18:47.915Z,3.22
2022-08-05T02:21:28.384Z,3.00
2022-08-05T02:24:03.763Z,3.30
2022-08-05T02:26:54.196Z,3.00
2022-08-05T02:29:58.846Z,3.20
2022-08-05T02:32:13.038Z,3.03
2022-08-05T02:34:54.912Z,3.13
2022-08-05T02:37:23.392Z,3.30
2022-08-05T02:39:53.564Z,3.15
2022-08-05T02:42:27.670Z,3.20
2022-08-05T02:44:58.873Z,3.80
2022-08-05T02:48:06.337Z,3.30
2022-08-05T02:50:15.359Z,3.47
2022-08-05T02:52:46.821Z,3.58
2022-08-05T02:55:14.542Z,3.47
2022-08-05T02:58:10.280Z,3.95
2022-08-05T03:00:35.182Z,3.90
2022-08-05T03:03:10.205Z,4.13
2022-08-05T03:06:56.736Z,4.28
2022-08-05T03:08:29.632Z,4.63
2022-08-05T03:11:02.341Z,4.40
2022-08-05T03:13:51.438Z,4.47
2022-08-05T03:16:29.791Z,4.55
2022-08-05T03:18:59.097Z,4.97
2022-08-05T03:21:28.939Z,4.65
2022-08-05T03:24:00.771Z,4.90
2022-08-05T03:26:30.913Z,4.45
2022-08-05T03:28:59.322Z,4.32
2022-08-05T03:31:56.888Z,4.95
2022-08-05T03:34:14.297Z,4.82
2022-08-05T03:36:41.279Z,4.97
2022-08-05T03:39:13.097Z,5.20
2022-08-05T03:41:53.959Z,4.63
2022-08-05T03:44:23.996Z,4.68
2022-08-05T03:46:50.929Z,4.88
2022-08-05T03:49:18.192Z,4.47
2022-08-05T03:52:36.905Z,4.68
2022-08-05T03:55:00.271Z,4.30
2022-08-05T03:57:46.042Z,4.95
2022-08-05T04:00:19.421Z,4.72
2022-08-05T04:02:58.188Z,4.47
2022-08-05T04:05:36.118Z,5.07
2022-08-05T04:08:14.828Z,4.80
2022-08-05T04:10:53.458Z,5.18
2022-08-05T04:13:21.864Z,4.88
2022-08-05T04:16:02.858Z,5.50
2022-08-05T04:18:34.294Z,5.65
2022-08-05T04:21:02.448Z,6.15
2022-08-05T04:24:05.417Z,5.47
2022-08-05T04:26:18.705Z,5.50
2022-08-05T04:28:51.221Z,5.38
2022-08-05T04:31:20.010Z,4.68
2022-08-05T04:34:17.929Z,4.70
2022-08-05T04:36:46.272Z,4.70
2022-08-05T04:39:18.393Z,4.70
2022-08-05T04:41:45.864Z,5.07
2022-08-05T04:44:15.278Z,4.65
2022-08-05T04:46:48.646Z,4.40
2022-08-05T04:49:15.651Z,4.55
2022-08-05T04:51:45.517Z,4.60
2022-08-05T04:54:14.688Z,4.78
2022-08-05T04:56:41.810Z,4.90
2022-08-05T04:59:21.619Z,4.20
2022-08-05T05:02:35.272Z,4.55
2022-08-05T05:04:43.736Z,4.22
2022-08-05T05:07:11.991Z,4.57
2022-08-05T05:09:42.889Z,4.75
2022-08-05T05:12:11.689Z,4.45
2022-08-05T05:14:38.645Z,4.40
2022-08-05T05:17:22.885Z,4.30
2022-08-05T05:19:53.998Z,4.57
2022-08-05T05:22:23.445Z,4.53
2022-08-05T05:25:00.299Z,4.40
2022-08-05T05:27:41.466Z,4.43
2022-08-05T05:30:29.817Z,4.50
2022-08-05T05:33:00.759Z,4.40
2022-08-05T05:35:37.647Z,4.50
2022-08-05T05:38:08.893Z,5.07
2022-08-05T05:40:36.732Z,5.65
2022-08-05T05:43:04.080Z,5.18
2022-08-05T05:45:35.519Z,5.38
2022-08-05T05:48:06.831Z,5.00
2022-08-05T05:50:41.271Z,5.00
2022-08-05T05:53:21.318Z,4.95
2022-08-05T05:55:52.428Z,4.78
2022-08-05T05:58:31.420Z,4.45
2022-08-05T06:01:04.921Z,4.43
2022-08-05T06:04:00.399Z,4.80
2022-08-05T06:06:30.834Z,4.60
2022-08-05T06:08:58.545Z,4.38
2022-08-05T06:11:26.055Z,4.70
2022-08-05T06:13:54.025Z,4.30
2022-08-05T06:16:28.159Z,4.50
2022-08-05T06:19:01.062Z,5.00
2022-08-05T06:21:36.786Z,4.93
2022-08-05T06:24:07.764Z,4.72
2022-08-05T06:26:51.491Z,5.00
2022-08-05T06:29:25.286Z,4.75
2022-08-05T06:32:25.825Z,5.32
2022-08-05T06:34:56.678Z,4.65
2022-08-05T06:37:39.449Z,5.03
2022-08-05T06:40:13.889Z,4.80
2022-08-05T06:42:44.660Z,4.75
2022-08-05T06:45:21.237Z,4.65
2022-08-05T06:48:44.209Z,4.75
2022-08-05T06:50:45.222Z,5.00
2022-08-05T06:53:22.640Z,5.03
2022-08-05T06:55:59.340Z,4.33
2022-08-05T06:58:34.849Z,4.53
2022-08-05T07:01:05.966Z,4.20
2022-08-05T07:03:34.291Z,4.33
2022-08-05T07:06:05.844Z,4.13
2022-08-05T07:08:43.117Z,4.20
2022-08-05T07:11:15.854Z,4.53
2022-08-05T07:14:02.514Z,4.50
2022-08-05T07:18:00.542Z,4.55
2022-08-05T07:20:22.974Z,4.50
2022-08-05T07:22:28.771Z,4.90
2022-08-05T07:24:58.425Z,4.82
2022-08-05T07:27:27.693Z,4.78
2022-08-05T07:30:25.542Z,4.68
2022-08-05T07:32:55.199Z,4.85
2022-08-05T07:36:01.486Z,5.05
2022-08-05T07:38:12.207Z,4.35
2022-08-05T07:40:39.560Z,4.20
2022-08-05T07:43:20.345Z,4.28
2022-08-05T07:45:57.067Z,4.70
2022-08-05T07:49:02.311Z,4.32
2022-08-05T07:51:23.814Z,4.20
2022-08-05T07:53:59.138Z,4.63
2022-08-05T07:57:00.667Z,4.50
2022-08-05T07:59:15.826Z,4.20
2022-08-05T08:01:52.342Z,3.90
2022-08-05T08:04:37.531Z,4.20
2022-08-05T08:07:07.357Z,3.58
2022-08-05T08:09:34.961Z,4.03
2022-08-05T08:12:10.649Z,4.05
2022-08-05T08:14:38.324Z,3.60
2022-08-05T08:17:16.138Z,3.88
2022-08-05T08:20:21.081Z,3.70
2022-08-05T08:22:36.095Z,3.50
2022-08-05T08:25:15.569Z,3.30
2022-08-05T08:27:47.890Z,3.65
2022-08-05T08:30:32.583Z,3.30
2022-08-05T08:33:13.552Z,3.58
2022-08-05T08:35:52.493Z,2.85
2022-08-05T08:38:35.454Z,3.30
2022-08-05T08:41:08.232Z,3.13
2022-08-05T08:45:20.397Z,2.63
2022-08-05T08:46:26.480Z,2.92
2022-08-05T08:49:06.368Z,2.63
2022-08-05T08:52:04.219Z,2.85
2022-08-05T08:54:34.235Z,2.63
2022-08-05T08:57:11.178Z,2.75
2022-08-05T08:59:42.076Z,2.47
2022-08-05T09:02:14.817Z,2.90
2022-08-05T09:04:58.312Z,2.47
2022-08-05T09:07:40.022Z,2.55
2022-08-05T09:10:20.004Z,2.55
2022-08-05T09:12:51.060Z,2.40
2022-08-05T09:15:20.362Z,2.30
2022-08-05T09:17:49.814Z,2.20
2022-08-05T09:20:36.719Z,2.67
2022-08-05T09:23:19.206Z,2.80
2022-08-05T09:26:01.375Z,2.58
2022-08-05T09:28:33.579Z,2.60
2022-08-05T09:31:44.023Z,2.25
2022-08-05T09:34:09.762Z,2.10
2022-08-05T09:36:56.257Z,2.45
2022-08-05T09:39:41.140Z,2.28
2022-08-05T09:42:23.960Z,2.88
2022-08-05T09:44:57.198Z,2.35
2022-08-05T09:47:48.131Z,2.45
2022-08-05T09:50:38.511Z,2.25
2022-08-05T09:53:07.128Z,2.55
2022-08-05T09:55:56.534Z,3.90
2022-08-05T09:58:24.719Z,2.50
2022-08-05T10:00:58.723Z,2.47
2022-08-05T10:03:26.155Z,2.22
2022-08-05T10:06:15.506Z,2.38
2022-08-05T10:08:43.195Z,2.10
2022-08-05T10:11:21.243Z,2.13
2022-08-05T10:13:49.817Z,2.30
2022-08-05T10:16:32.114Z,2.22
2022-08-05T10:19:01.780Z,2.20
2022-08-05T10:21:40.130Z,1.88
2022-08-05T10:24:10.786Z,2.17
2022-08-05T10:26:49.019Z,1.98
2022-08-05T10:29:23.858Z,1.83
2022-08-05T10:32:54.589Z,2.22
2022-08-05T10:35:00.954Z,2.28
2022-08-05T10:37:37.554Z,2.20
2022-08-05T10:40:44.992Z,2.10
2022-08-05T10:43:31.041Z,1.98
2022-08-05T10:46:07.056Z,2.10
2022-08-05T10:48:56.592Z,1.83
2022-08-05T10:51:28.899Z,2.30
2022-08-05T10:54:17.062Z,1.95
2022-08-05T10:56:46.733Z,2.03
2022-08-05T11:00:03.101Z,2.13
2022-08-05T11:02:14.658Z,1.95
2022-08-05T11:04:56.847Z,2.10
2022-08-05T11:07:33.056Z,1.83
2022-08-05T11:10:27.156Z,2.00
2022-08-05T11:12:55.223Z,1.98
2022-08-05T11:16:00.011Z,1.98
2022-08-05T11:18:30.069Z,2.22
2022-08-05T11:20:59.521Z,2.15
2022-08-05T11:24:05.570Z,2.03
2022-08-05T11:26:38.172Z,2.13
2022-08-05T11:29:13.333Z,1.95
2022-08-05T11:31:54.202Z,2.10
2022-08-05T11:34:37.693Z,2.00
2022-08-05T11:37:06.128Z,2.00
2022-08-05T11:40:00.836Z,1.98
2022-08-05T11:42:40.400Z,2.00
2022-08-05T11:45:23.438Z,2.00
2022-08-05T11:47:55.331Z,1.92
2022-08-05T11:50:22.813Z,2.25
2022-08-05T11:52:53.142Z,2.10
2022-08-05T11:55:24.275Z,1.98
2022-08-05T11:58:10.188Z,2.00
2022-08-05T12:00:41.126Z,2.03
2022-08-05T12:03:29.243Z,2.30
2022-08-05T12:06:05.763Z,2.28
2022-08-05T12:08:51.512Z,2.38
2022-08-05T12:11:20.495Z,2.17
2022-08-05T12:14:14.010Z,2.22
2022-08-05T12:16:45.233Z,1.95
2022-08-05T12:20:25.515Z,2.03
2022-08-05T12:22:01.782Z,2.20
2022-08-05T12:24:28.690Z,1.90
2022-08-05T12:26:57.003Z,2.42
2022-08-05T12:29:26.685Z,2.13
2022-08-05T12:32:01.779Z,2.00
2022-08-05T12:34:31.585Z,2.42
2022-08-05T12:37:17.315Z,2.30
2022-08-05T12:39:51.267Z,2.67
2022-08-05T12:42:20.091Z,2.00
2022-08-05T12:44:47.588Z,2.00
2022-08-05T12:47:26.131Z,2.35
2022-08-05T12:50:03.017Z,2.15
2022-08-05T12:52:38.878Z,2.22
2022-08-05T12:55:22.372Z,2.20
2022-08-05T12:58:52.626Z,2.10
2022-08-05T13:02:01.382Z,1.90
2022-08-05T13:03:42.350Z,2.20
2022-08-05T13:06:17.483Z,2.47
2022-08-05T13:08:50.874Z,2.00
2022-08-05T13:11:57.922Z,2.28
2022-08-05T13:14:36.579Z,2.47
2022-08-05T13:17:31.840Z,2.30
2022-08-05T13:20:09.586Z,2.13
2022-08-05T13:22:40.718Z,2.10
2022-08-05T13:25:18.754Z,2.30
2022-08-05T13:27:50.197Z,2.20
2022-08-05T13:30:34.869Z,2.17
2022-08-05T13:33:04.014Z,2.17
2022-08-05T13:35:47.138Z,2.28
2022-08-05T13:38:28.420Z,2.38
2022-08-05T13:40:59.806Z,2.42
2022-08-05T13:43:44.395Z,2.40
2022-08-05T13:46:14.274Z,2.47
2022-08-05T13:48:58.234Z,2.30
2022-08-05T13:51:36.435Z,2.33
2022-08-05T13:54:12.509Z,2.50
2022-08-05T13:56:50.859Z,2.45
2022-08-05T13:59:24.207Z,2.38
2022-08-05T14:01:59.203Z,2.15
2022-08-05T14:04:51.611Z,3.28
2022-08-05T14:07:56.979Z,2.58
2022-08-05T14:10:19.153Z,2.38
2022-08-05T14:12:57.368Z,2.17
2022-08-05T14:16:09.217Z,2.50
2022-08-05T14:18:15.232Z,2.40
2022-08-05T14:20:48.182Z,2.40
2022-08-05T14:23:19.165Z,2.50
2022-08-05T14:25:58.880Z,2.60
2022-08-05T14:28:29.340Z,2.50
2022-08-05T14:30:57.148Z,2.50
2022-08-05T14:33:24.288Z,2.42
2022-08-05T14:35:54.574Z,2.40
2022-08-05T14:38:31.987Z,2.47
2022-08-05T14:41:05.989Z,2.33
2022-08-05T14:43:57.516Z,2.45
2022-08-05T14:46:28.503Z,2.20
2022-08-05T14:48:58.547Z,2.53
2022-08-05T14:51:30.785Z,2.60
2022-08-05T14:54:26.791Z,2.58
2022-08-05T14:56:48.186Z,2.20
2022-08-05T14:59:15.538Z,2.67
2022-08-05T15:01:48.041Z,2.60
2022-08-05T15:04:17.076Z,2.75
2022-08-05T15:06:49.303Z,2.78
2022-08-05T15:09:52.750Z,2.50
2022-08-05T15:12:09.337Z,2.80
2022-08-05T15:14:48.040Z,2.50
2022-08-05T15:17:46.124Z,2.70
2022-08-05T15:20:11.990Z,2.72
2022-08-05T15:22:54.185Z,2.38
2022-08-05T15:25:51.345Z,2.47
2022-08-05T15:28:14.269Z,2.67
2022-08-05T15:30:43.279Z,2.70
2022-08-05T15:33:10.552Z,2.70
2022-08-05T15:35:45.246Z,2.70
2022-08-05T15:38:35.528Z,2.60
2022-08-05T15:41:22.412Z,2.83
2022-08-05T15:43:46.922Z,2.53
2022-08-05T15:46:14.106Z,2.85
2022-08-05T15:48:54.608Z,2.88
2022-08-05T15:52:10.393Z,3.10
2022-08-05T15:54:16.209Z,2.80
2022-08-05T15:56:43.623Z,2.90
2022-08-05T15:59:21.589Z,2.70
2022-08-05T16:01:53.681Z,2.90
2022-08-05T16:04:25.230Z,3.00
2022-08-05T16:06:55.978Z,2.60
2022-08-05T16:09:24.910Z,2.50
2022-08-05T16:11:54.020Z,2.25
2022-08-05T16:14:22.285Z,2.50
2022-08-05T16:16:49.842Z,2.78
2022-08-05T16:19:25.434Z,2.20
2022-08-05T16:22:04.479Z,2.40
2022-08-05T16:24:40.608Z,2.67
2022-08-05T16:27:09.249Z,2.53
2022-08-05T16:29:37.109Z,2.53
2022-08-05T16:32:05.365Z,2.28
2022-08-05T16:34:33.284Z,2.45
2022-08-05T16:37:00.219Z,2.53
2022-08-05T16:40:06.148Z,2.53
2022-08-05T16:42:17.713Z,2.40
2022-08-05T16:44:54.038Z,2.70
2022-08-05T16:47:28.569Z,2.38
2022-08-05T16:50:06.802Z,2.60
2022-08-05T16:52:35.359Z,2.95
2022-08-05T16:55:04.370Z,2.72
2022-08-05T16:57:53.019Z,2.97
2022-08-05T17:00:26.014Z,4.57
2022-08-05T17:03:15.375Z,3.20
2022-08-05T17:05:50.219Z,2.63
2022-08-05T17:08:36.299Z,2.60
2022-08-05T17:11:08.803Z,3.00
2022-08-05T17:13:41.404Z,3.03
2022-08-05T17:16:28.012Z,2.90
2022-08-05T17:18:56.226Z,3.00
2022-08-05T17:21:23.729Z,3.13
2022-08-05T17:24:03.450Z,2.90
2022-08-05T17:26:34.301Z,2.88
2022-08-05T17:29:07.305Z,2.70
2022-08-05T17:31:56.848Z,3.00
2022-08-05T17:34:30.209Z,2.80
2022-08-05T17:37:00.448Z,2.50
2022-08-05T17:39:34.670Z,3.08
2022-08-05T17:42:18.621Z,2.67
2022-08-05T17:44:51.598Z,2.95
2022-08-05T17:47:23.060Z,2.95
2022-08-05T17:50:03.481Z,2.97
2022-08-05T17:52:32.687Z,2.83
2022-08-05T17:55:00.785Z,2.55
2022-08-05T17:57:30.707Z,3.05
2022-08-05T18:00:03.394Z,2.70
2022-08-05T18:02:33.275Z,2.95
2022-08-05T18:05:06.338Z,3.20
2022-08-05T18:07:41.313Z,3.05
2022-08-05T18:10:11.156Z,2.80
2022-08-05T18:12:39.147Z,2.90
2022-08-05T18:15:06.770Z,3.00
2022-08-05T18:17:59.723Z,3.08
2022-08-05T18:20:29.585Z,2.83
2022-08-05T18:23:00.744Z,2.90
2022-08-05T18:25:35.870Z,3.00
2022-08-05T18:28:05.101Z,2.80
2022-08-05T18:30:33.242Z,2.88
2022-08-05T18:33:01.078Z,3.17
2022-08-05T18:35:59.856Z,2.88
2022-08-05T18:38:19.294Z,2.92
2022-08-05T18:41:53.172Z,3.30
2022-08-05T18:43:43.220Z,3.28
2022-08-05T18:46:15.912Z,3.17
2022-08-05T18:48:52.341Z,3.13
2022-08-05T18:52:03.271Z,3.40
2022-08-05T18:54:31.214Z,2.97
2022-08-05T18:57:02.007Z,3.60
2022-08-05T18:59:43.587Z,3.40
2022-08-05T19:02:27.246Z,3.63
2022-08-05T19:05:02.642Z,3.40
2022-08-05T19:07:49.828Z,3.20
2022-08-05T19:10:26.478Z,3.38
2022-08-05T19:12:56.564Z,3.30
2022-08-05T19:15:57.789Z,3.90
2022-08-05T19:18:13.489Z,3.60
2022-08-05T19:20:48.457Z,3.90
2022-08-05T19:24:04.970Z,3.33
2022-08-05T19:26:03.398Z,3.75
2022-08-05T19:28:32.882Z,3.65
2022-08-05T19:31:00.405Z,3.50
2022-08-05T19:33:34.061Z,3.90
2022-08-05T19:36:07.150Z,3.58
2022-08-05T19:38:36.611Z,3.30
2022-08-05T19:41:09.120Z,3.70
2022-08-05T19:44:06.850Z,3.78
2022-08-05T19:46:30.062Z,3.67
2022-08-05T19:49:03.320Z,3.70
2022-08-05T19:52:05.070Z,3.70
2022-08-05T19:54:29.492Z,3.97
2022-08-05T19:56:59.259Z,4.00
2022-08-05T19:59:55.072Z,4.10
2022-08-05T20:02:22.370Z,3.63
2022-08-05T20:04:50.812Z,3.95
2022-08-05T20:07:46.021Z,4.50
2022-08-05T20:10:13.162Z,4.90
2022-08-05T20:12:47.833Z,4.75
2022-08-05T20:15:48.288Z,5.30
2022-08-05T20:18:10.398Z,4.85
2022-08-05T20:20:56.224Z,4.70
2022-08-05T20:23:39.703Z,4.97
2022-08-05T20:26:16.603Z,5.65
2022-08-05T20:28:53.982Z,5.18
2022-08-05T20:31:37.111Z,5.75
2022-08-05T20:34:11.718Z,6.25
2022-08-05T20:36:43.054Z,5.88
2022-08-05T20:39:13.061Z,5.47
2022-08-05T20:41:43.888Z,5.20
2022-08-05T20:44:29.098Z,5.70
2022-08-05T20:47:03.096Z,6.22
2022-08-05T20:49:37.767Z,6.10
2022-08-05T20:52:07.360Z,5.90
2022-08-05T20:54:55.259Z,6.22
2022-08-05T20:57:24.741Z,6.00
2022-08-05T21:00:41.177Z,6.35
2022-08-05T21:03:01.569Z,6.45
2022-08-05T21:05:47.556Z,6.60
2022-08-05T21:08:15.636Z,6.60
2022-08-05T21:10:48.526Z,6.35
2022-08-05T21:13:25.976Z,7.10
2022-08-05T21:15:54.892Z,6.93
2022-08-05T21:18:23.304Z,6.53
2022-08-05T21:20:50.389Z,7.32
2022-08-05T21:23:17.462Z,6.57
2022-08-05T21:25:44.839Z,7.10
2022-08-05T21:28:12.171Z,7.03
2022-08-05T21:30:39.962Z,7.72
2022-08-05T21:33:22.022Z,7.07
2022-08-05T21:35:58.794Z,7.18
2022-08-05T21:38:27.097Z,6.80
2022-08-05T21:40:54.073Z,6.88
2022-08-05T21:43:24.522Z,6.93
2022-08-05T21:45:57.642Z,6.35
2022-08-05T21:48:27.994Z,6.43
2022-08-05T21:50:55.641Z,6.57
2022-08-05T21:53:27.512Z,6.28
2022-08-05T21:56:04.608Z,6.40
2022-08-05T21:58:42.303Z,6.78
2022-08-05T22:01:10.780Z,6.93
2022-08-05T22:03:52.067Z,7.07
2022-08-05T22:06:23.101Z,6.28
2022-08-05T22:09:02.292Z,7.10
2022-08-05T22:11:41.244Z,7.80
2022-08-05T22:14:32.708Z,6.95
2022-08-05T22:17:01.438Z,7.57
2022-08-05T22:20:00.131Z,6.78
2022-08-05T22:22:27.108Z,6.30
2022-08-05T22:25:18.159Z,6.80
2022-08-05T22:28:09.868Z,7.20
2022-08-05T22:30:55.447Z,7.20
2022-08-05T22:33:57.228Z,6.77
2022-08-05T22:36:14.325Z,8.27
2022-08-05T22:38:43.251Z,8.27
2022-08-05T22:41:10.767Z,7.37
2022-08-05T22:43:40.564Z,6.93
2022-08-05T22:46:13.076Z,6.47
2022-08-05T22:48:41.942Z,6.60
2022-08-05T22:51:15.634Z,5.87
2022-08-05T22:53:50.227Z,5.57
2022-08-05T22:56:17.846Z,5.50
2022-08-05T22:59:04.181Z,4.43
2022-08-05T23:02:04.237Z,3.90
2022-08-05T23:04:33.375Z,3.50
2022-08-05T23:07:00.395Z,3.73
2022-08-05T23:09:57.637Z,3.90
2022-08-05T23:12:16.303Z,3.40
2022-08-05T23:14:43.892Z,3.43
2022-08-05T23:17:34.637Z,3.10
2022-08-05T23:20:17.054Z,3.47
2022-08-05T23:22:47.795Z,2.83
2022-08-05T23:25:53.094Z,3.20
2022-08-05T23:28:06.976Z,3.03
2022-08-05T23:30:40.226Z,2.83
2022-08-05T23:33:21.982Z,2.80
2022-08-05T23:35:56.194Z,2.90
2022-08-05T23:38:26.047Z,3.27
2022-08-05T23:40:53.979Z,2.90
2022-08-05T23:43:25.138Z,2.63
2022-08-05T23:46:20.369Z,2.80
2022-08-05T23:49:00.840Z,2.50
2022-08-05T23:51:55.279Z,2.70
2022-08-05T23:54:30.490Z,2.80
2022-08-05T23:57:04.181Z,2.60
2022-08-05T23:59:37.648Z,2.47
